createdAt,value
2014-10-10T10:34:35.436Z,126
2014-10-10T10:34:53.655Z,121
2014-10-10T10:35:11.874Z,120
2014-10-10T10:35:30.095Z,125
2014-10-10T10:35:48.298Z,139
2014-10-10T10:36:06.517Z,126
2014-10-10T10:36:24.737Z,135
2014-10-10T10:36:42.956Z,147
2014-10-10T10:37:01.175Z,146
2014-10-10T10:37:19.380Z,131
2014-10-10T10:37:37.599Z,149
2014-10-10T10:37:55.817Z,157
2014-10-10T10:38:14.036Z,173
2014-10-10T10:38:32.257Z,113
2014-10-10T10:38:50.476Z,124
2014-10-10T10:39:08.694Z,114
2014-10-10T10:39:26.899Z,118
2014-10-10T10:39:45.117Z,114
2014-10-10T10:40:03.336Z,105
2014-10-10T10:40:21.557Z,112
2014-10-10T10:40:39.776Z,107
2014-10-10T10:40:57.979Z,98
2014-10-10T10:41:16.197Z,104
2014-10-10T10:41:34.418Z,94
2014-10-10T10:41:52.621Z,90
2014-10-10T10:42:10.840Z,87
2014-10-10T10:42:29.061Z,86
2014-10-10T10:42:47.280Z,88
2014-10-10T10:43:05.483Z,98
2014-10-10T10:43:23.703Z,113
2014-10-10T10:43:41.922Z,103
2014-10-10T10:44:00.141Z,154
2014-10-10T10:44:18.360Z,101
2014-10-10T10:44:36.580Z,88
2014-10-10T10:44:54.784Z,85
2014-10-10T10:45:13.002Z,84
2014-10-10T10:45:31.222Z,85
2014-10-10T10:45:49.441Z,91
2014-10-10T10:46:07.644Z,93
2014-10-10T10:46:25.863Z,86
2014-10-10T10:46:44.084Z,84
2014-10-10T10:47:02.288Z,86
2014-10-10T10:47:20.506Z,84
2014-10-10T10:47:38.727Z,102
2014-10-10T10:47:56.946Z,102
2014-10-10T10:48:15.165Z,102
2014-10-10T10:48:33.369Z,102
2014-10-10T10:48:51.587Z,102
2014-10-10T10:49:09.806Z,105
2014-10-10T10:49:28.025Z,107
2014-10-10T10:49:46.247Z,103
2014-10-10T10:50:04.450Z,100
2014-10-10T10:50:22.669Z,99
2014-10-10T10:50:40.889Z,100
2014-10-10T10:50:59.108Z,97
2014-10-10T10:51:17.327Z,85
2014-10-10T10:51:35.547Z,94
2014-10-10T10:51:53.750Z,95
2014-10-10T10:52:11.968Z,96
2014-10-10T10:52:30.187Z,95
2014-10-10T10:52:48.409Z,95
2014-10-10T10:53:06.612Z,96
2014-10-10T10:53:24.831Z,94
2014-10-10T10:53:43.052Z,94
2014-10-10T10:54:01.255Z,94
2014-10-10T10:54:19.473Z,94
2014-10-10T10:54:37.677Z,93
2014-10-10T10:54:55.896Z,93
2014-10-10T10:55:14.115Z,92
2014-10-10T10:55:32.318Z,92
2014-10-10T10:55:50.540Z,93
2014-10-10T10:56:08.759Z,90
2014-10-10T10:56:26.977Z,89
2014-10-10T10:56:45.181Z,89
2014-10-10T10:57:03.401Z,99
2014-10-10T10:57:21.620Z,101
2014-10-10T10:57:39.839Z,95
2014-10-10T10:57:58.044Z,93
2014-10-10T10:58:16.263Z,93
2014-10-10T10:58:34.481Z,92
2014-10-10T10:58:52.685Z,92
2014-10-10T10:59:10.905Z,91
2014-10-10T10:59:29.124Z,92
2014-10-10T10:59:47.327Z,88
2014-10-10T11:00:05.548Z,87
2014-10-10T11:00:23.767Z,85
2014-10-10T11:00:41.970Z,84
2014-10-10T11:01:00.189Z,83
2014-10-10T11:01:18.409Z,81
2014-10-10T11:01:36.612Z,80
2014-10-10T11:01:54.831Z,79
2014-10-10T11:02:13.052Z,78
2014-10-10T11:02:31.271Z,77
2014-10-10T11:02:49.489Z,76
2014-10-10T11:03:07.693Z,76
2014-10-10T11:03:25.913Z,76
2014-10-10T11:03:44.132Z,75
2014-10-10T11:04:02.351Z,75
2014-10-10T11:04:20.557Z,75
2014-10-10T11:04:38.776Z,75
2014-10-10T11:04:56.994Z,75
2014-10-10T11:05:15.198Z,76
2014-10-10T11:05:33.417Z,77
2014-10-10T11:05:51.620Z,78
2014-10-10T11:06:09.839Z,79
2014-10-10T11:06:28.061Z,84
2014-10-10T11:06:46.264Z,87
2014-10-10T11:07:04.498Z,100
2014-10-10T11:07:22.717Z,110
2014-10-10T11:07:40.937Z,147
2014-10-10T11:07:59.156Z,110
2014-10-10T11:08:17.374Z,113
2014-10-10T11:08:35.580Z,98
2014-10-10T11:08:53.798Z,100
2014-10-10T11:09:12.017Z,96
2014-10-10T11:09:30.222Z,99
2014-10-10T11:09:48.441Z,101
2014-10-10T11:10:06.660Z,105
2014-10-10T11:10:24.878Z,96
2014-10-10T11:10:43.099Z,94
2014-10-10T11:11:01.318Z,104
2014-10-10T11:11:19.521Z,96
2014-10-10T11:11:37.742Z,101
2014-10-10T11:11:55.961Z,132
2014-10-10T11:12:14.179Z,123
2014-10-10T11:12:32.382Z,106
2014-10-10T11:12:50.603Z,97
2014-10-10T11:13:08.822Z,108
2014-10-10T11:13:27.041Z,94
2014-10-10T11:13:45.246Z,92
2014-10-10T11:14:03.465Z,92
2014-10-10T11:14:21.683Z,92
2014-10-10T11:14:39.888Z,91
2014-10-10T11:14:58.107Z,91
2014-10-10T11:15:16.326Z,90
2014-10-10T11:15:34.545Z,90
2014-10-10T11:15:52.750Z,89
2014-10-10T11:16:10.969Z,89
2014-10-10T11:16:29.187Z,88
2014-10-10T11:16:47.408Z,88
2014-10-10T11:17:05.627Z,89
2014-10-10T11:17:23.846Z,89
2014-10-10T11:17:42.051Z,90
2014-10-10T11:18:00.269Z,89
2014-10-10T11:18:18.488Z,94
2014-10-10T11:18:36.691Z,91
2014-10-10T11:18:54.912Z,92
2014-10-10T11:19:13.131Z,92
2014-10-10T11:19:31.334Z,91
2014-10-10T11:19:49.555Z,91
2014-10-10T11:20:07.773Z,94
2014-10-10T11:20:25.977Z,98
2014-10-10T11:20:44.197Z,102
2014-10-10T11:21:02.432Z,108
2014-10-10T11:21:20.072Z,111
2014-10-10T11:21:37.682Z,103
2014-10-10T11:21:55.293Z,101
2014-10-10T11:22:12.887Z,99
2014-10-10T11:22:31.106Z,102
2014-10-10T11:22:49.310Z,107
2014-10-10T11:23:07.528Z,105
2014-10-10T11:23:25.763Z,101
2014-10-10T11:23:43.982Z,105
2014-10-10T11:24:02.187Z,104
2014-10-10T11:24:20.405Z,98
2014-10-10T11:24:38.624Z,96
2014-10-10T11:24:56.846Z,97
2014-10-10T11:25:15.065Z,96
2014-10-10T11:25:33.283Z,97
2014-10-10T11:25:51.488Z,104
2014-10-10T11:26:09.706Z,111
2014-10-10T11:26:27.925Z,106
2014-10-10T11:26:46.144Z,100
2014-10-10T11:27:04.366Z,108
2014-10-10T11:27:22.584Z,666
2014-10-10T11:27:40.787Z,650
2014-10-10T11:27:59.007Z,116
2014-10-10T11:28:17.226Z,84
2014-10-10T11:28:35.445Z,88
2014-10-10T11:28:53.648Z,86
2014-10-10T11:29:11.884Z,90
2014-10-10T11:29:30.119Z,90
2014-10-10T11:29:48.337Z,93
2014-10-10T11:30:06.558Z,96
2014-10-10T11:30:24.777Z,99
2014-10-10T11:30:42.980Z,98
2014-10-10T11:31:01.199Z,88
2014-10-10T11:31:19.420Z,85
2014-10-10T11:31:37.639Z,578
2014-10-10T11:31:55.842Z,584
2014-10-10T11:32:14.062Z,579
2014-10-10T11:32:32.281Z,568
2014-10-10T11:32:50.500Z,559
2014-10-10T11:33:08.718Z,577
2014-10-10T11:33:26.939Z,579
2014-10-10T11:33:45.158Z,555
2014-10-10T11:34:03.377Z,500
2014-10-10T11:34:21.598Z,577
2014-10-10T11:34:39.817Z,578
2014-10-10T11:34:58.036Z,574
2014-10-10T11:35:16.255Z,530
2014-10-10T11:35:34.475Z,625
2014-10-10T11:35:52.694Z,615
2014-10-10T11:36:10.897Z,531
2014-10-10T11:36:29.118Z,525
2014-10-10T11:36:47.337Z,523
2014-10-10T11:37:05.555Z,521
2014-10-10T11:37:23.774Z,510
2014-10-10T11:37:41.995Z,522
2014-10-10T11:38:00.214Z,524
2014-10-10T12:36:15.499Z,52
2014-10-10T12:36:33.717Z,52
2014-10-10T12:36:51.936Z,53
2014-10-10T12:37:10.139Z,54
2014-10-10T12:37:28.360Z,57
2014-10-10T12:37:46.579Z,46
2014-10-10T14:34:36.584Z,427
2014-10-10T14:34:56.554Z,424
2014-10-10T14:35:14.538Z,415
2014-10-10T14:35:32.757Z,426
2014-10-10T14:35:50.976Z,424
2014-10-10T14:36:09.213Z,424
2014-10-10T14:36:27.432Z,410
2014-10-10T14:36:45.650Z,418
2014-10-10T14:37:03.870Z,422
2014-10-10T14:37:22.089Z,411
2014-10-10T14:37:40.308Z,422
2014-10-10T14:37:58.511Z,426
2014-10-10T14:38:16.732Z,424
2014-10-10T14:38:34.966Z,414
2014-10-10T14:38:53.185Z,425
2014-10-10T14:39:11.406Z,423
2014-10-10T14:39:29.625Z,412
2014-10-10T14:39:47.844Z,413
2014-10-10T14:40:06.063Z,410
2014-10-10T14:40:24.282Z,422
2014-10-10T14:40:42.501Z,414
2014-10-10T14:41:00.720Z,422
2014-10-10T14:41:18.941Z,415
2014-10-10T14:41:37.159Z,418
2014-10-10T14:41:55.378Z,414
2014-10-10T14:42:13.599Z,425
2014-10-10T14:42:31.818Z,421
2014-10-10T14:42:50.036Z,423
2014-10-10T14:43:08.240Z,420
2014-10-10T14:43:26.493Z,411
2014-10-10T14:43:44.711Z,424
2014-10-10T14:44:02.930Z,425
2014-10-10T14:44:21.135Z,408
2014-10-10T14:44:39.354Z,418
2014-10-10T14:44:57.573Z,417
2014-10-10T14:45:15.792Z,411
2014-10-10T14:45:34.011Z,424
2014-10-10T14:45:52.214Z,424
2014-10-10T14:46:10.433Z,408
2014-10-10T14:46:28.654Z,413
2014-10-10T14:46:46.873Z,407
2014-10-10T14:47:05.091Z,424
2014-10-10T14:47:23.312Z,407
2014-10-10T14:47:41.531Z,418
2014-10-10T14:47:59.750Z,423
2014-10-10T14:48:17.968Z,424
2014-10-10T14:48:36.173Z,417
2014-10-10T14:48:54.392Z,407
2014-10-10T14:49:12.611Z,412
2014-10-10T14:49:30.833Z,416
2014-10-10T14:49:49.067Z,422
2014-10-10T14:50:07.270Z,409
2014-10-10T14:50:25.489Z,424
2014-10-10T14:50:43.710Z,414
2014-10-10T14:51:01.913Z,424
2014-10-10T14:51:20.132Z,411
2014-10-10T14:51:38.368Z,421
2014-10-10T14:51:56.587Z,424
2014-10-10T14:52:14.790Z,423
2014-10-10T14:52:33.009Z,414
2014-10-10T14:52:51.228Z,421
2014-10-10T14:53:09.447Z,416
2014-10-10T14:53:27.666Z,421
2014-10-10T14:53:45.872Z,423
2014-10-10T14:54:04.091Z,423
2014-10-10T14:54:22.309Z,423
2014-10-10T14:54:40.528Z,406
2014-10-10T14:54:58.733Z,421
2014-10-10T14:55:16.952Z,422
2014-10-10T14:55:35.171Z,423
2014-10-10T14:55:53.376Z,417
2014-10-10T14:56:11.595Z,414
2014-10-10T14:56:29.813Z,422
2014-10-10T14:56:48.032Z,422
2014-10-10T14:57:06.237Z,422
2014-10-10T14:57:24.456Z,423
2014-10-10T14:57:42.675Z,407
2014-10-10T14:58:00.896Z,420
2014-10-10T14:58:19.114Z,420
2014-10-10T14:58:37.349Z,423
2014-10-10T14:58:55.567Z,406
2014-10-10T14:59:13.773Z,414
2014-10-10T14:59:31.991Z,414
2014-10-10T14:59:50.210Z,413
2014-10-10T15:00:08.431Z,410
2014-10-10T15:00:26.650Z,422
2014-10-10T15:00:44.868Z,421
2014-10-10T15:01:03.071Z,418
2014-10-10T15:01:21.339Z,420
2014-10-10T15:01:39.558Z,410
2014-10-10T15:01:57.777Z,416
2014-10-10T15:02:15.997Z,415
2014-10-10T15:02:34.216Z,418
2014-10-10T15:02:52.435Z,423
2014-10-10T15:03:10.638Z,420
2014-10-10T15:03:28.858Z,422
2014-10-10T15:03:47.076Z,413
2014-10-10T15:04:05.295Z,419
2014-10-10T15:04:23.548Z,420
2014-10-10T15:04:41.767Z,414
2014-10-10T15:04:59.970Z,413
2014-10-10T15:05:18.191Z,415
2014-10-10T15:05:36.456Z,415
2014-10-10T15:05:54.675Z,422
2014-10-10T15:06:12.910Z,406
2014-10-10T15:06:31.130Z,415
2014-10-10T15:06:49.349Z,412
2014-10-10T15:07:07.568Z,421
2014-10-10T15:07:25.789Z,415
2014-10-10T15:07:43.992Z,421
2014-10-10T15:08:02.242Z,420
2014-10-10T15:08:20.445Z,409
2014-10-10T15:08:38.650Z,418
2014-10-10T15:08:56.884Z,409
2014-10-10T15:09:15.103Z,412
2014-10-10T15:09:33.324Z,405
2014-10-10T15:09:51.543Z,420
2014-10-10T15:10:09.761Z,405
2014-10-10T15:10:27.981Z,406
2014-10-10T15:10:46.200Z,422
2014-10-10T15:11:04.419Z,419
2014-10-10T15:11:22.637Z,405
2014-10-10T15:11:40.874Z,419
2014-10-10T15:11:59.077Z,414
2014-10-10T15:12:17.296Z,405
2014-10-10T15:12:35.517Z,422
2014-10-10T15:12:53.767Z,421
2014-10-10T15:13:11.970Z,415
2014-10-10T15:13:30.189Z,407
2014-10-10T15:13:48.410Z,418
2014-10-10T15:14:06.644Z,405
2014-10-10T15:14:24.847Z,415
2014-10-10T15:14:43.068Z,422
2014-10-10T15:15:01.287Z,422
2014-10-10T15:15:19.506Z,405
2014-10-10T15:15:37.740Z,421
2014-10-10T15:15:55.945Z,422
2014-10-10T15:16:14.180Z,408
2014-10-10T15:16:32.398Z,412
2014-10-10T15:16:50.618Z,406
2014-10-10T15:17:08.837Z,405
2014-10-10T15:17:27.040Z,421
2014-10-10T15:17:45.290Z,422
2014-10-10T15:18:03.527Z,420
2014-10-10T15:18:21.746Z,420
2014-10-10T15:18:39.980Z,422
2014-10-10T15:18:58.201Z,421
2014-10-10T15:19:16.420Z,416
2014-10-10T15:19:34.639Z,406
2014-10-10T15:19:52.873Z,420
2014-10-10T15:20:11.094Z,410
2014-10-10T15:20:29.328Z,419
2014-10-10T15:20:47.563Z,405
2014-10-10T15:21:05.783Z,416
2014-10-10T15:21:24.002Z,415
2014-10-10T15:21:42.221Z,415
2014-10-10T15:22:00.440Z,419
2014-10-10T15:22:18.645Z,422
2014-10-10T15:22:36.863Z,414
2014-10-10T15:22:55.082Z,423
2014-10-10T15:23:13.319Z,413
2014-10-10T15:23:31.537Z,447
2014-10-10T15:23:49.756Z,430
2014-10-10T15:24:07.975Z,444
2014-10-10T15:24:26.196Z,433
2014-10-10T15:24:44.414Z,427
2014-10-10T15:25:02.633Z,426
2014-10-10T15:25:20.855Z,439
2014-10-10T15:25:39.074Z,438
2014-10-10T15:26:10.464Z,437
2014-10-10T15:26:28.685Z,438
2014-10-10T15:26:46.904Z,432
2014-10-10T15:27:05.122Z,443
2014-10-10T15:27:23.342Z,431
2014-10-10T15:27:41.561Z,449
2014-10-10T15:27:59.780Z,444
2014-10-10T15:28:17.998Z,441
2014-10-10T15:28:36.219Z,440
2014-10-10T15:28:54.422Z,449
2014-10-10T15:29:12.641Z,441
2014-10-10T15:29:30.863Z,448
2014-10-10T15:29:49.097Z,435
2014-10-10T15:30:07.316Z,450
2014-10-10T15:30:25.535Z,440
2014-10-10T15:30:43.754Z,447
2014-10-10T15:31:01.989Z,443
2014-10-10T15:31:20.208Z,438
2014-10-10T15:31:38.413Z,449
2014-10-10T15:31:56.647Z,432
2014-10-10T15:32:14.866Z,435
2014-10-10T15:32:33.085Z,16
2014-10-10T15:32:51.305Z,21
2014-10-10T15:33:09.524Z,21
2014-10-10T15:33:27.727Z,21
2014-10-10T15:33:45.949Z,23
2014-10-10T15:34:04.152Z,25
2014-10-10T15:34:22.371Z,2
2014-10-10T15:34:40.574Z,2
2014-10-10T15:34:58.795Z,2
2014-10-10T15:35:16.998Z,2
2014-10-10T15:35:35.217Z,2
2014-10-10T15:35:53.422Z,2
2014-10-10T15:36:11.625Z,2
2014-10-10T15:36:29.844Z,2
2014-10-10T15:36:48.047Z,2
2014-10-10T15:37:06.267Z,2
2014-10-10T15:37:24.471Z,2
2014-10-10T15:37:42.689Z,2
2014-10-10T15:38:00.893Z,2
2014-10-10T15:38:19.112Z,2
2014-10-10T15:38:37.315Z,2
2014-10-10T15:38:55.534Z,2
2014-10-10T15:39:13.740Z,2
2014-10-10T15:39:31.959Z,2
2014-10-10T15:39:50.162Z,2
2014-10-10T15:40:08.383Z,2
2014-10-10T15:40:26.586Z,2
2014-10-10T15:40:44.805Z,2
2014-10-10T15:41:03.008Z,2
2014-10-10T15:41:21.229Z,2
2014-10-10T15:41:39.432Z,2
2014-10-10T15:41:57.650Z,2
2014-10-10T15:42:15.870Z,2
2014-10-10T15:42:34.073Z,2
2014-10-10T15:42:52.292Z,2
2014-10-10T15:43:10.495Z,2
2014-10-10T15:43:28.717Z,2
2014-10-10T15:43:46.920Z,2
2014-10-10T15:44:05.123Z,2
2014-10-10T15:44:23.344Z,2
2014-10-10T15:44:41.547Z,2
2014-10-10T15:44:59.766Z,2
2014-10-10T15:45:17.969Z,2
2014-10-10T15:45:36.174Z,2
2014-10-10T15:45:54.393Z,2
2014-10-10T15:46:12.596Z,2
2014-10-10T15:46:30.817Z,2
2014-10-10T15:46:49.020Z,2
2014-10-10T15:47:07.223Z,1
2014-10-10T15:47:25.442Z,2
2014-10-10T15:47:43.647Z,2
2014-10-10T15:48:01.850Z,2
2014-10-10T15:48:20.069Z,1
2014-10-10T15:48:38.274Z,1
2014-10-10T15:48:56.493Z,1
2014-10-10T15:49:14.696Z,1
2014-10-10T15:49:32.914Z,1
2014-10-10T15:49:51.120Z,1
2014-10-10T15:50:09.338Z,1
2014-10-10T15:50:27.541Z,1
2014-10-10T15:50:45.762Z,1
2014-10-10T15:51:03.965Z,1
2014-10-10T15:51:22.184Z,1
2014-10-10T15:51:40.403Z,1
2014-10-10T15:51:58.609Z,1
2014-10-10T15:52:16.812Z,1
2014-10-10T15:52:35.046Z,1
2014-10-10T15:52:53.251Z,1
2014-10-10T15:53:11.454Z,0
2014-10-10T15:53:29.672Z,0
2014-10-10T15:53:47.907Z,0
2014-10-10T15:54:06.097Z,0
2014-10-10T15:54:24.300Z,0
2014-10-10T15:54:42.519Z,0
2014-10-10T15:55:00.723Z,0
2014-10-10T15:55:18.942Z,0
2014-10-10T15:55:37.145Z,0
2014-10-10T15:55:55.364Z,0
2014-10-10T15:56:13.570Z,0
2014-10-10T15:56:31.773Z,0
2014-10-10T15:56:49.992Z,0
2014-10-10T15:57:08.196Z,0
2014-10-10T15:57:26.415Z,0
2014-10-10T15:57:44.618Z,0
2014-10-10T15:58:02.837Z,0
2014-10-10T15:58:21.042Z,0
2014-10-10T15:58:39.261Z,0
2014-10-10T15:58:57.464Z,0
2014-10-10T15:59:15.684Z,0
2014-10-10T15:59:33.888Z,0
2014-10-10T15:59:52.106Z,0
2014-10-10T16:00:10.325Z,0
2014-10-10T16:00:28.530Z,0
2014-10-10T16:00:46.749Z,0
2014-10-10T16:01:04.952Z,0
2014-10-10T16:01:23.174Z,0
2014-10-10T16:01:41.393Z,0
2014-10-10T16:01:59.596Z,0
2014-10-10T16:02:17.815Z,0
2014-10-10T16:02:36.034Z,0
2014-10-10T16:02:54.253Z,0
2014-10-10T16:03:12.456Z,0
2014-10-10T16:03:30.678Z,0
2014-10-10T16:03:48.881Z,0
2014-10-10T16:04:07.100Z,0
2014-10-10T16:04:25.319Z,0
2014-10-10T16:04:43.523Z,0
2014-10-10T16:05:01.741Z,0
2014-10-10T16:05:19.944Z,0
2014-10-10T16:05:38.165Z,0
2014-10-10T16:05:56.384Z,0
2014-10-10T16:06:14.587Z,0
2014-10-10T16:06:32.809Z,0
2014-10-10T16:06:51.012Z,0
2014-10-10T16:07:09.231Z,0
2014-10-10T16:07:27.434Z,0
2014-10-10T16:07:45.655Z,0
2014-10-10T16:08:03.858Z,0
2014-10-10T16:08:22.061Z,0
2014-10-10T16:08:40.301Z,0
2014-10-10T16:08:58.504Z,0
2014-10-10T16:09:16.722Z,0
2014-10-10T16:09:34.941Z,0
2014-10-10T16:09:53.192Z,0
2014-10-10T16:10:11.411Z,0
2014-10-10T16:10:29.614Z,0
2014-10-10T16:10:47.875Z,0
2014-10-10T16:11:06.094Z,0
2014-10-10T16:11:24.297Z,0
2014-10-10T16:11:42.516Z,0
2014-10-10T16:12:00.766Z,0
2014-10-10T16:12:18.984Z,0
2014-10-10T16:12:37.188Z,0
2014-10-10T16:12:55.448Z,0
2014-10-10T16:13:13.667Z,0
2014-10-10T16:13:31.870Z,0
2014-10-10T16:13:50.089Z,0
2014-10-10T16:14:08.318Z,0
2014-10-10T16:14:26.537Z,0
2014-10-10T16:14:44.756Z,0
2014-10-10T16:15:02.976Z,0
2014-10-10T16:15:21.194Z,0
2014-10-10T16:15:39.413Z,0
2014-10-10T16:15:57.616Z,0
2014-10-10T16:16:15.852Z,0
2014-10-10T16:16:34.055Z,0
2014-10-10T16:16:52.290Z,0
2014-10-10T16:17:10.526Z,0
2014-10-10T16:17:28.714Z,0
2014-10-10T16:17:46.933Z,0
2014-10-10T16:18:05.136Z,0
2014-10-10T16:18:23.371Z,0
2014-10-10T16:18:41.575Z,0
2014-10-10T16:18:59.793Z,0
2014-10-10T16:19:18.019Z,0
2014-10-10T16:19:36.222Z,0
2014-10-10T16:19:54.425Z,0
2014-10-10T16:20:12.644Z,0
2014-10-10T16:20:30.871Z,0
2014-10-10T16:20:49.074Z,0
2014-10-10T16:21:07.293Z,0
2014-10-10T16:21:25.503Z,0
2014-10-10T16:21:43.722Z,0
2014-10-10T16:22:01.940Z,0
2014-10-10T16:22:20.143Z,0
2014-10-10T16:22:38.354Z,0
2014-10-10T16:22:56.572Z,0
2014-10-10T16:23:14.775Z,0
2014-10-10T16:23:33.000Z,0
2014-10-10T16:23:51.219Z,0
2014-10-10T16:24:09.422Z,0
2014-10-10T16:24:27.641Z,0
2014-10-10T16:24:45.865Z,0
2014-10-10T16:25:04.068Z,0
2014-10-10T16:25:22.286Z,2
2014-10-10T16:25:40.493Z,2
2014-10-10T16:25:58.711Z,3
2014-10-10T16:26:16.930Z,3
2014-10-10T16:26:35.133Z,3
2014-10-10T16:26:53.357Z,3
2014-10-10T16:27:11.576Z,3
2014-10-10T16:27:29.779Z,3
2014-10-10T16:27:48.002Z,3
2014-10-10T16:28:06.205Z,0
2014-10-10T16:28:24.423Z,0
2014-10-10T16:28:42.627Z,0
2014-10-10T16:29:00.911Z,0
2014-10-10T16:29:19.067Z,0
2014-10-10T16:29:37.270Z,0
2014-10-10T16:29:55.492Z,0
2014-10-10T16:30:13.726Z,0
2014-10-10T16:30:31.914Z,0
2014-10-10T16:30:50.117Z,0
2014-10-10T16:31:08.339Z,0
2014-10-10T16:31:26.542Z,0
2014-10-10T16:31:44.761Z,0
2014-10-10T16:32:02.967Z,0
2014-10-10T16:32:21.185Z,0
2014-10-10T16:32:39.389Z,0
2014-10-10T16:32:57.607Z,0
2014-10-10T16:33:15.828Z,0
2014-10-10T16:33:34.031Z,0
2014-10-10T16:33:52.250Z,0
2014-10-10T16:34:10.472Z,0
2014-10-10T16:34:28.675Z,0
2014-10-10T16:34:46.878Z,0
2014-10-10T16:35:05.097Z,0
2014-10-10T16:35:23.317Z,0
2014-10-10T16:35:41.521Z,0
2014-10-10T16:35:59.739Z,0
2014-10-10T16:36:17.945Z,0
2014-10-10T16:36:36.164Z,0
2014-10-10T16:36:54.367Z,0
2014-10-10T16:37:12.586Z,0
2014-10-10T16:37:30.807Z,0
2014-10-10T16:37:49.010Z,0
2014-10-10T16:38:07.213Z,0
2014-10-10T16:38:25.435Z,0
2014-10-10T16:38:43.654Z,0
2014-10-10T16:39:01.857Z,0
2014-10-10T16:39:20.075Z,0
2014-10-10T16:39:38.280Z,0
2014-10-10T16:39:56.498Z,0
2014-10-10T16:40:14.717Z,0
2014-10-10T16:40:32.922Z,0
2014-10-10T16:40:51.141Z,0
2014-10-10T16:41:09.344Z,0
2014-10-10T16:41:27.563Z,0
2014-10-10T16:41:45.769Z,0
2014-10-10T16:42:03.988Z,0
2014-10-10T16:42:22.191Z,0
2014-10-10T16:42:40.412Z,0
2014-10-10T16:42:58.615Z,0
2014-10-10T16:43:16.833Z,0
2014-10-10T16:43:35.052Z,0
2014-10-10T16:43:53.257Z,0
2014-10-10T16:44:11.476Z,0
2014-10-10T16:44:29.679Z,0
2014-10-10T16:44:47.900Z,0
2014-10-10T16:45:06.103Z,0
2014-10-10T16:45:24.322Z,0
2014-10-10T16:45:42.541Z,0
2014-10-10T16:46:00.746Z,0
2014-10-10T16:46:18.964Z,0
2014-10-10T16:46:37.168Z,0
2014-10-10T16:46:55.388Z,0
2014-10-10T16:47:13.591Z,0
2014-10-10T16:47:31.810Z,0
2014-10-10T16:47:50.029Z,0
2014-10-10T16:48:08.234Z,0
2014-10-10T16:48:26.453Z,0
2014-10-10T16:48:44.672Z,0
2014-10-10T16:49:02.877Z,0
2014-10-10T16:49:21.095Z,0
2014-10-10T16:49:39.299Z,0
2014-10-10T16:49:57.517Z,0
2014-10-10T16:50:15.738Z,0
2014-10-10T16:50:33.941Z,0
2014-10-10T16:50:52.160Z,0
2014-10-10T16:51:10.381Z,0
2014-10-10T16:51:28.584Z,0
2014-10-10T16:51:46.803Z,0
2014-10-10T16:52:05.006Z,0
2014-10-10T16:52:23.226Z,0
2014-10-10T16:52:41.430Z,0
2014-10-10T16:52:59.648Z,0
2014-10-10T16:53:17.853Z,0
2014-10-10T16:53:36.072Z,0
2014-10-10T16:53:54.275Z,0
2014-10-10T16:54:12.494Z,0
2014-10-10T16:54:30.699Z,0
2014-10-10T16:54:48.918Z,0
2014-10-10T16:55:07.137Z,0
2014-10-10T16:55:25.342Z,0
2014-10-10T16:55:43.561Z,0
2014-10-10T16:56:01.764Z,0
2014-10-10T16:56:19.984Z,0
2014-10-10T16:56:38.203Z,0
2014-10-10T16:56:56.422Z,0
2014-10-10T16:57:14.625Z,0
2014-10-10T16:57:32.846Z,0
2014-10-10T16:57:51.049Z,0
2014-10-10T16:58:09.268Z,0
2014-10-10T16:58:27.473Z,0
2014-10-10T16:58:45.692Z,0
2014-10-10T16:59:03.910Z,0
2014-10-10T16:59:22.113Z,0
2014-10-10T16:59:40.334Z,0
2014-10-10T16:59:58.537Z,0
2014-10-10T17:00:16.756Z,0
2014-10-10T17:00:34.977Z,0
2014-10-10T17:00:53.180Z,0
2014-10-10T17:01:11.399Z,0
2014-10-10T17:01:29.617Z,0
2014-10-10T17:01:47.823Z,0
2014-10-10T17:02:06.041Z,0
2014-10-10T17:02:24.244Z,0
2014-10-10T17:02:42.465Z,0
2014-10-10T17:03:00.684Z,0
2014-10-10T17:03:18.887Z,0
2014-10-10T17:03:37.106Z,0
2014-10-10T17:03:55.311Z,0
2014-10-10T17:04:13.530Z,0
2014-10-10T17:04:31.733Z,0
2014-10-10T17:04:49.954Z,0
2014-10-10T17:05:08.157Z,0
2014-10-10T17:05:26.375Z,0
2014-10-10T17:05:44.579Z,0
2014-10-10T17:06:02.799Z,0
2014-10-10T17:06:21.002Z,0
2014-10-10T17:06:39.206Z,0
2014-10-10T17:06:57.426Z,0
2014-10-10T17:07:15.645Z,0
2014-10-10T17:07:33.848Z,0
2014-10-10T17:07:52.067Z,0
2014-10-10T17:08:10.273Z,0
2014-10-10T17:08:28.492Z,0
2014-10-10T17:08:46.695Z,0
2014-10-10T17:09:04.915Z,0
2014-10-10T17:09:23.133Z,0
2014-10-10T17:09:41.337Z,0
2014-10-10T17:09:59.540Z,0
2014-10-10T17:10:17.760Z,0
2014-10-10T17:10:35.964Z,0
2014-10-10T17:10:54.182Z,0
2014-10-10T17:11:12.387Z,0
2014-10-10T17:11:30.606Z,0
2014-10-10T17:11:48.825Z,0
2014-10-10T17:12:07.028Z,0
2014-10-10T17:12:25.250Z,0
2014-10-10T17:12:43.453Z,0
2014-10-10T17:13:01.672Z,0
2014-10-10T17:13:19.892Z,0
2014-10-10T17:13:38.096Z,0
2014-10-10T17:13:56.299Z,0
2014-10-10T17:14:14.517Z,0
2014-10-10T17:14:32.737Z,0
2014-10-10T17:14:50.940Z,0
2014-10-10T17:15:09.159Z,0
2014-10-10T17:15:27.364Z,0
2014-10-10T17:15:45.583Z,0
2014-10-10T17:16:03.802Z,0
2014-10-10T17:16:22.005Z,0
2014-10-10T17:16:40.227Z,0
2014-10-10T17:16:58.430Z,0
2014-10-10T17:17:16.648Z,0
2014-10-10T17:17:34.854Z,0
2014-10-10T17:17:53.072Z,0
2014-10-10T17:18:11.275Z,0
2014-10-10T17:18:29.494Z,0
2014-10-10T17:18:47.699Z,0
2014-10-10T17:19:05.918Z,0
2014-10-10T17:19:24.121Z,0
2014-10-10T17:19:42.342Z,0
2014-10-10T17:20:00.561Z,0
2014-10-10T17:20:18.764Z,0
2014-10-10T17:20:36.983Z,0
2014-10-10T17:20:55.188Z,0
2014-10-10T17:21:13.406Z,0
2014-10-10T17:21:31.610Z,0
2014-10-10T17:21:49.830Z,0
2014-10-10T17:22:08.033Z,0
2014-10-10T17:22:26.252Z,0
2014-10-10T17:22:44.455Z,0
2014-10-10T17:23:02.675Z,0
2014-10-10T17:23:20.878Z,0
2014-10-10T17:23:39.097Z,0
2014-10-10T17:23:57.319Z,0
2014-10-10T17:24:15.522Z,0
2014-10-10T17:24:33.741Z,0
2014-10-10T17:24:51.944Z,0
2014-10-10T17:25:10.164Z,0
2014-10-10T17:25:28.383Z,0
2014-10-10T17:25:46.586Z,0
2014-10-10T17:26:04.806Z,0
2014-10-10T17:26:23.009Z,0
2014-10-10T17:26:41.228Z,0
2014-10-10T17:26:59.447Z,0
2014-10-10T17:27:17.653Z,0
2014-10-10T17:27:35.872Z,0
2014-10-10T17:27:54.075Z,0
2014-10-10T17:28:12.295Z,0
2014-10-10T17:28:30.499Z,0
2014-10-10T17:28:48.717Z,0
2014-10-10T17:29:06.936Z,0
2014-10-10T17:29:25.141Z,0
2014-10-10T17:29:43.360Z,0
2014-10-10T17:30:01.563Z,0
2014-10-10T17:30:19.784Z,0
2014-10-10T17:30:38.003Z,0
2014-10-10T17:30:56.206Z,0
2014-10-10T17:31:14.424Z,0
2014-10-10T17:31:32.630Z,0
2014-10-10T17:31:50.848Z,0
2014-10-10T17:32:09.051Z,0
2014-10-10T17:32:27.272Z,0
2014-10-10T17:32:45.475Z,0
2014-10-10T17:33:03.694Z,0
2014-10-10T17:33:21.897Z,0
2014-10-10T17:33:40.119Z,0
2014-10-10T17:33:58.322Z,0
2014-10-10T17:34:16.541Z,0
2014-10-10T17:34:34.762Z,0
2014-10-10T17:34:52.965Z,0
2014-10-10T17:35:11.168Z,0
2014-10-10T17:35:29.387Z,0
2014-10-10T17:35:47.606Z,0
2014-10-10T17:36:05.809Z,0
2014-10-10T17:36:24.028Z,0
2014-10-10T17:36:42.233Z,0
2014-10-10T17:37:00.452Z,0
2014-10-10T17:37:18.655Z,0
2014-10-10T17:37:36.874Z,0
2014-10-10T17:37:55.080Z,0
2014-10-10T17:38:13.299Z,0
2014-10-10T17:38:31.518Z,0
2014-10-10T17:38:49.723Z,0
2014-10-10T17:39:07.926Z,0
2014-10-10T17:39:26.145Z,0
2014-10-10T17:39:44.348Z,0
2014-10-10T17:40:02.567Z,0
2014-10-10T17:40:20.786Z,0
2014-10-10T17:40:38.989Z,0
2014-10-10T17:40:57.210Z,0
2014-10-10T17:41:15.429Z,0
2014-10-10T17:41:33.632Z,0
2014-10-10T17:41:51.851Z,0
2014-10-10T17:42:10.057Z,0
2014-10-10T17:42:28.276Z,0
2014-10-10T17:42:46.479Z,0
2014-10-10T17:43:04.698Z,0
2014-10-10T17:43:22.902Z,0
2014-10-10T17:43:41.120Z,0
2014-10-10T17:43:59.323Z,0
2014-10-10T17:44:17.545Z,0
2014-10-10T17:44:35.748Z,0
2014-10-10T17:44:53.967Z,0
2014-10-10T17:45:12.188Z,0
2014-10-10T17:45:30.391Z,0
2014-10-10T17:45:48.610Z,0
2014-10-10T17:46:06.813Z,0
2014-10-10T17:46:25.018Z,0
2014-10-10T17:46:43.237Z,0
2014-10-10T17:47:01.455Z,0
2014-10-10T17:47:19.661Z,0
2014-10-10T17:47:37.879Z,0
2014-10-10T17:47:56.082Z,0
2014-10-10T17:48:14.301Z,0
2014-10-10T17:48:32.522Z,0
2014-10-10T17:48:50.741Z,0
2014-10-10T17:49:08.944Z,0
2014-10-10T17:49:27.165Z,0
2014-10-10T17:49:45.368Z,0
2014-10-10T17:50:03.586Z,0
2014-10-10T17:50:21.805Z,0
2014-10-10T17:50:40.010Z,0